createdAt,value
2023-02-09T00:02:19.592Z,44.53
2023-02-09T00:04:47.429Z,48.10
2023-02-09T00:07:15.274Z,46.30
2023-02-09T00:09:44.868Z,47.85
2023-02-09T00:12:32.675Z,48.88
2023-02-09T00:15:01.901Z,44.80
2023-02-09T00:17:29.773Z,42.28
2023-02-09T00:19:57.675Z,48.67
2023-02-09T00:22:25.614Z,46.30
2023-02-09T00:24:54.451Z,46.35
2023-02-09T00:27:22.918Z,42.83
2023-02-09T00:29:50.732Z,46.92
2023-02-09T00:32:19.929Z,47.65
2023-02-09T00:34:47.792Z,48.97
2023-02-09T00:37:15.653Z,46.08
2023-02-09T00:39:43.490Z,45.03
2023-02-09T00:42:11.710Z,43.00
2023-02-09T00:44:41.598Z,51.10
2023-02-09T00:47:10.255Z,52.35
2023-02-09T00:49:40.433Z,51.30
2023-02-09T00:52:10.046Z,42.90
2023-02-09T00:54:38.172Z,44.78
2023-02-09T00:57:06.059Z,50.20
2023-02-09T00:59:35.289Z,49.22
2023-02-09T01:02:03.592Z,47.78
2023-02-09T01:04:31.475Z,48.17
2023-02-09T01:07:00.705Z,50.22
2023-02-09T01:09:28.612Z,49.47
2023-02-09T01:11:56.453Z,53.17
2023-02-09T01:14:24.318Z,52.85
2023-02-09T01:16:52.417Z,52.22
2023-02-09T01:19:20.511Z,45.92
2023-02-09T01:21:49.747Z,46.28
2023-02-09T01:24:18.968Z,49.05
2023-02-09T01:26:46.769Z,46.30
2023-02-09T01:29:15.680Z,48.40
2023-02-09T01:31:44.341Z,45.80
2023-02-09T01:34:14.129Z,50.28
2023-02-09T01:36:41.993Z,51.95
2023-02-09T01:39:11.277Z,49.60
2023-02-09T01:41:41.155Z,49.72
2023-02-09T01:44:47.827Z,48.42
2023-02-09T01:47:16.061Z,50.45
2023-02-09T01:49:45.203Z,52.70
2023-02-09T01:52:16.046Z,52.10
2023-02-09T01:54:47.057Z,54.47
2023-02-09T01:57:21.687Z,47.72
2023-02-09T01:59:53.842Z,51.38
2023-02-09T02:02:23.336Z,47.10
2023-02-09T02:04:52.240Z,47.90
2023-02-09T02:07:26.226Z,51.90
2023-02-09T02:09:55.112Z,58.97
2023-02-09T02:12:25.000Z,44.53
2023-02-09T02:14:52.818Z,51.60
2023-02-09T02:17:31.359Z,55.50
2023-02-09T02:20:24.217Z,52.22
2023-02-09T02:23:03.980Z,49.55
2023-02-09T02:26:11.417Z,51.28
2023-02-09T02:29:13.061Z,56.47
2023-02-09T02:32:02.872Z,57.05
2023-02-09T02:34:42.171Z,52.13
2023-02-09T02:37:22.055Z,52.83
2023-02-09T02:39:55.620Z,54.88
2023-02-09T02:42:45.554Z,55.47
2023-02-09T02:45:19.751Z,62.13
2023-02-09T02:47:54.802Z,60.28
2023-02-09T02:50:27.156Z,60.50
2023-02-09T02:52:59.414Z,51.38
2023-02-09T02:55:31.415Z,53.28
2023-02-09T02:58:04.455Z,55.95
2023-02-09T03:00:37.677Z,52.38
2023-02-09T03:03:12.103Z,51.22
2023-02-09T03:05:40.377Z,52.92
2023-02-09T03:08:08.275Z,49.78
2023-02-09T03:10:38.682Z,47.90
2023-02-09T03:13:17.919Z,62.30
2023-02-09T03:15:55.997Z,53.47
2023-02-09T03:18:32.498Z,55.05
2023-02-09T03:21:05.872Z,57.00
2023-02-09T03:23:39.058Z,54.70
2023-02-09T03:26:11.061Z,54.63
2023-02-09T03:28:42.253Z,62.78
2023-02-09T03:31:10.587Z,64.10
2023-02-09T03:33:40.776Z,64.95
2023-02-09T03:36:13.808Z,53.70
2023-02-09T03:38:41.745Z,55.50
2023-02-09T03:41:09.593Z,51.63
2023-02-09T03:43:54.877Z,58.78
2023-02-09T03:46:22.934Z,54.88
2023-02-09T03:48:52.224Z,55.47
2023-02-09T03:51:20.119Z,58.97
2023-02-09T03:53:48.128Z,59.05
2023-02-09T03:56:15.985Z,55.70
2023-02-09T03:58:43.828Z,58.63
2023-02-09T04:01:12.386Z,53.63
2023-02-09T04:03:40.744Z,65.65
2023-02-09T04:06:10.880Z,55.85
2023-02-09T04:08:39.063Z,53.80
2023-02-09T04:11:06.988Z,63.97
2023-02-09T04:13:34.809Z,59.13
2023-02-09T04:16:02.729Z,66.00
2023-02-09T04:18:30.608Z,56.13
2023-02-09T04:20:58.514Z,54.92
2023-02-09T04:23:27.824Z,66.55
2023-02-09T04:25:55.662Z,57.67
2023-02-09T04:28:23.572Z,60.53
2023-02-09T04:30:54.728Z,62.67
2023-02-09T04:33:23.822Z,56.85
2023-02-09T04:35:52.439Z,59.33
2023-02-09T04:38:21.862Z,55.97
2023-02-09T04:40:53.598Z,65.70
2023-02-09T04:43:21.534Z,67.72
2023-02-09T04:45:49.496Z,64.13
2023-02-09T04:48:19.489Z,63.60
2023-02-09T04:50:47.827Z,58.72
2023-02-09T04:53:16.335Z,56.33
2023-02-09T04:55:46.155Z,63.97
2023-02-09T04:58:35.509Z,63.40
2023-02-09T05:01:04.578Z,62.00
2023-02-09T05:03:32.567Z,62.53
2023-02-09T05:06:02.723Z,66.95
2023-02-09T05:08:31.115Z,61.35
2023-02-09T05:10:59.345Z,65.97
2023-02-09T05:13:28.864Z,62.40
2023-02-09T05:15:56.682Z,71.28
2023-02-09T05:18:25.668Z,65.15
2023-02-09T05:20:53.948Z,68.68
2023-02-09T05:23:21.803Z,61.03
2023-02-09T05:25:49.633Z,68.35
2023-02-09T05:28:17.525Z,66.70
2023-02-09T05:30:48.824Z,65.60
2023-02-09T05:33:16.876Z,67.85
2023-02-09T05:35:44.686Z,68.35
2023-02-09T05:38:12.529Z,63.38
2023-02-09T05:40:40.402Z,77.32
2023-02-09T05:43:09.318Z,66.05
2023-02-09T05:45:37.247Z,78.78
2023-02-09T05:48:06.916Z,70.20
2023-02-09T05:50:35.690Z,67.88
2023-02-09T05:53:03.623Z,65.35
2023-02-09T05:55:31.476Z,72.90
2023-02-09T05:57:59.369Z,71.45
2023-02-09T06:00:29.683Z,72.38
2023-02-09T06:02:58.574Z,75.75
2023-02-09T06:05:29.917Z,67.47
2023-02-09T06:07:57.975Z,63.50
2023-02-09T06:10:25.829Z,69.30
2023-02-09T06:12:53.930Z,71.78
2023-02-09T06:15:22.080Z,64.63
2023-02-09T06:17:50.001Z,67.22
2023-02-09T06:20:18.082Z,70.97
2023-02-09T06:22:47.319Z,72.60
2023-02-09T06:25:15.203Z,71.40
2023-02-09T06:27:43.070Z,74.53
2023-02-09T06:30:12.392Z,82.15
2023-02-09T06:32:40.340Z,76.18
2023-02-09T06:35:08.382Z,75.10
2023-02-09T06:37:36.632Z,82.25
2023-02-09T06:40:06.548Z,77.22
2023-02-09T06:42:44.549Z,78.47
2023-02-09T06:45:13.238Z,71.45
2023-02-09T06:47:42.655Z,74.60
2023-02-09T06:50:11.309Z,70.20
2023-02-09T06:52:39.528Z,71.53
2023-02-09T06:55:09.502Z,77.13
2023-02-09T06:57:37.503Z,79.93
2023-02-09T07:00:07.377Z,84.47
2023-02-09T07:02:35.383Z,73.65
2023-02-09T07:05:03.329Z,71.22
2023-02-09T07:07:31.191Z,76.80
2023-02-09T07:09:59.032Z,70.07
2023-02-09T07:12:28.301Z,78.07
2023-02-09T07:14:56.150Z,70.03
2023-02-09T07:17:23.993Z,77.13
2023-02-09T07:19:51.832Z,74.70
2023-02-09T07:22:19.715Z,71.50
2023-02-09T07:24:47.560Z,74.82
2023-02-09T07:27:15.899Z,68.07
2023-02-09T07:29:45.263Z,80.75
2023-02-09T07:32:13.376Z,69.95
2023-02-09T07:34:41.454Z,79.07
2023-02-09T07:37:09.282Z,70.85
2023-02-09T07:39:37.193Z,75.07
2023-02-09T07:42:05.419Z,75.05
2023-02-09T07:44:33.271Z,69.57
2023-02-09T07:47:02.479Z,78.35
2023-02-09T07:49:30.312Z,75.72
2023-02-09T07:51:58.147Z,72.78
2023-02-09T07:54:26.002Z,65.30
2023-02-09T07:56:56.431Z,73.53
2023-02-09T07:59:24.582Z,74.82
2023-02-09T08:01:52.523Z,69.75
2023-02-09T08:04:22.781Z,67.50
2023-02-09T08:06:51.929Z,72.60
2023-02-09T08:09:19.790Z,69.07
2023-02-09T08:11:51.009Z,72.68
2023-02-09T08:14:21.855Z,75.55
2023-02-09T08:16:51.191Z,69.30
2023-02-09T08:19:23.782Z,69.57
2023-02-09T08:21:52.268Z,69.13
2023-02-09T08:24:21.620Z,78.13
2023-02-09T08:26:49.567Z,70.70
2023-02-09T08:29:17.476Z,70.35
2023-02-09T08:31:45.482Z,55.33
2023-02-09T08:34:13.376Z,58.95
2023-02-09T08:36:42.577Z,62.25
2023-02-09T08:39:10.787Z,62.28
2023-02-09T08:41:39.023Z,57.53
2023-02-09T08:44:06.963Z,58.45
2023-02-09T08:46:36.604Z,58.75
2023-02-09T08:49:04.652Z,56.60
2023-02-09T08:51:32.644Z,49.58
2023-02-09T08:54:01.883Z,53.90
2023-02-09T08:56:29.702Z,60.03
2023-02-09T08:58:57.533Z,54.78
2023-02-09T09:01:25.387Z,59.85
2023-02-09T09:03:53.364Z,49.28
2023-02-09T09:06:22.092Z,51.92
2023-02-09T09:08:51.539Z,50.28
2023-02-09T09:11:20.818Z,55.97
2023-02-09T09:13:48.987Z,50.35
2023-02-09T09:16:17.978Z,47.42
2023-02-09T09:18:46.304Z,50.05
2023-02-09T09:21:15.955Z,52.08
2023-02-09T09:23:44.140Z,47.38
2023-02-09T09:26:12.213Z,51.38
2023-02-09T09:28:41.410Z,48.08
2023-02-09T09:31:10.082Z,46.03
2023-02-09T09:33:38.660Z,45.80
2023-02-09T09:36:07.659Z,48.40
2023-02-09T09:38:39.329Z,45.53
2023-02-09T09:41:17.795Z,47.65
2023-02-09T09:43:47.072Z,44.30
2023-02-09T09:46:20.784Z,50.47
2023-02-09T09:48:51.605Z,39.40
2023-02-09T09:51:26.752Z,44.65
2023-02-09T09:53:57.506Z,46.47
2023-02-09T09:56:27.280Z,43.80
2023-02-09T09:58:56.640Z,42.25
2023-02-09T10:01:28.512Z,43.78
2023-02-09T10:03:59.376Z,45.42
2023-02-09T10:06:34.332Z,40.15
2023-02-09T10:09:05.982Z,39.78
2023-02-09T10:11:39.081Z,42.88
2023-02-09T10:14:11.431Z,41.45
2023-02-09T10:16:39.494Z,36.40
2023-02-09T10:19:18.599Z,44.25
2023-02-09T10:21:46.489Z,39.90
2023-02-09T10:24:17.057Z,33.20
2023-02-09T10:26:44.949Z,37.80
2023-02-09T10:29:26.857Z,34.38
2023-02-09T10:31:58.172Z,35.30
2023-02-09T10:34:32.605Z,34.70
2023-02-09T10:37:22.910Z,29.02
2023-02-09T10:39:59.768Z,30.60
2023-02-09T10:42:31.158Z,29.88
2023-02-09T10:45:07.999Z,31.33
2023-02-09T10:47:35.870Z,33.78
2023-02-09T10:50:17.077Z,35.67
2023-02-09T10:52:56.120Z,31.60
2023-02-09T10:55:27.830Z,32.03
2023-02-09T10:58:13.338Z,30.55
2023-02-09T11:00:50.662Z,26.40
2023-02-09T11:03:20.594Z,27.85
2023-02-09T11:05:58.221Z,29.63
2023-02-09T11:08:38.347Z,28.67
2023-02-09T11:11:09.608Z,29.67
2023-02-09T11:13:38.711Z,30.63
2023-02-09T11:16:21.855Z,31.20
2023-02-09T11:18:54.082Z,34.53
2023-02-09T11:21:30.479Z,36.22
2023-02-09T11:24:04.140Z,34.78
2023-02-09T11:26:39.642Z,31.20
2023-02-09T11:29:17.729Z,34.03
2023-02-09T11:34:42.754Z,32.22
2023-02-09T11:37:24.950Z,33.33
2023-02-09T11:39:58.408Z,30.90
2023-02-09T11:42:47.311Z,34.53
2023-02-09T11:45:21.390Z,37.33
2023-02-09T11:48:01.584Z,32.67
2023-02-09T11:50:32.660Z,30.55
2023-02-09T11:53:05.134Z,32.67
2023-02-09T11:55:37.908Z,30.80
2023-02-09T11:58:26.277Z,32.72
2023-02-09T12:01:14.340Z,28.92
2023-02-09T12:03:50.296Z,28.33
2023-02-09T12:06:22.834Z,26.33
2023-02-09T12:09:13.771Z,29.42
2023-02-09T12:11:51.083Z,30.17
2023-02-09T12:14:31.316Z,30.23
2023-02-09T12:17:08.901Z,29.05
2023-02-09T12:19:42.329Z,29.73
2023-02-09T12:22:46.438Z,26.30
2023-02-09T12:25:22.004Z,31.10
2023-02-09T12:28:12.582Z,29.02
2023-02-09T12:31:08.821Z,29.17
2023-02-09T12:33:39.323Z,36.13
2023-02-09T12:36:29.324Z,28.75
2023-02-09T12:39:05.235Z,24.88
2023-02-09T12:42:12.296Z,25.35
2023-02-09T12:44:55.691Z,23.33
2023-02-09T12:47:46.655Z,22.35
2023-02-09T12:50:27.987Z,23.83
2023-02-09T12:53:30.948Z,24.60
2023-02-09T12:56:00.722Z,25.23
2023-02-09T12:58:40.628Z,21.10
2023-02-09T13:01:09.581Z,20.42
2023-02-09T13:03:44.981Z,21.08
2023-02-09T13:06:28.292Z,20.50
2023-02-09T13:09:00.890Z,20.08
2023-02-09T13:11:41.408Z,19.08
2023-02-09T13:14:14.877Z,26.05
2023-02-09T13:17:17.645Z,22.83
2023-02-09T13:20:15.673Z,24.08
2023-02-09T13:23:02.221Z,26.30
2023-02-09T13:25:35.439Z,22.77
2023-02-09T13:28:10.757Z,22.65
2023-02-09T13:30:38.732Z,24.67
2023-02-09T13:33:29.011Z,21.13
2023-02-09T13:36:22.968Z,21.23
2023-02-09T13:38:52.792Z,21.92
2023-02-09T13:41:35.514Z,23.10
2023-02-09T13:44:03.530Z,25.98
2023-02-09T13:46:35.059Z,24.20
2023-02-09T13:49:13.116Z,25.45
2023-02-09T13:54:08.755Z,27.70
2023-02-09T13:56:40.407Z,30.00
2023-02-09T13:59:08.366Z,27.58
2023-02-09T14:01:38.441Z,29.27
2023-02-09T14:04:12.234Z,27.73
2023-02-09T14:06:44.652Z,28.05
2023-02-09T14:09:20.042Z,29.95
2023-02-09T14:11:52.872Z,34.97
2023-02-09T14:14:26.029Z,33.67
2023-02-09T14:17:24.336Z,45.17
2023-02-09T14:19:54.062Z,32.10
2023-02-09T14:22:34.571Z,35.58
2023-02-09T14:25:17.908Z,31.88
2023-02-09T14:27:49.351Z,33.08
2023-02-09T14:30:19.700Z,36.10
2023-02-09T14:32:51.917Z,43.08
2023-02-09T14:35:22.598Z,34.42
2023-02-09T14:37:51.560Z,39.35
2023-02-09T14:40:25.910Z,38.38
2023-02-09T14:43:00.350Z,40.25
2023-02-09T14:45:31.469Z,38.47
2023-02-09T14:47:59.326Z,40.42
2023-02-09T14:50:27.156Z,41.67
2023-02-09T14:53:05.689Z,35.00
2023-02-09T14:55:39.994Z,37.97
2023-02-09T14:58:19.000Z,38.42
2023-02-09T15:00:46.869Z,40.83
2023-02-09T15:03:14.812Z,39.25
2023-02-09T15:05:43.026Z,38.15
2023-02-09T15:08:15.475Z,38.10
2023-02-09T15:10:46.357Z,35.03
2023-02-09T15:13:16.319Z,38.22
2023-02-09T15:15:45.110Z,35.92
2023-02-09T15:18:18.338Z,42.03
2023-02-09T15:20:46.162Z,43.85
2023-02-09T15:23:14.721Z,36.88
2023-02-09T15:25:43.517Z,38.00
2023-02-09T15:28:24.651Z,36.13
2023-02-09T15:30:52.583Z,48.08
2023-02-09T15:33:20.488Z,35.30
2023-02-09T15:35:48.983Z,32.53
2023-02-09T15:38:18.319Z,40.17
2023-02-09T15:41:05.221Z,36.20
2023-02-09T15:43:53.021Z,39.72
2023-02-09T15:46:38.564Z,40.28
2023-02-09T15:49:07.286Z,40.83
2023-02-09T15:51:37.958Z,41.28
2023-02-09T15:54:11.610Z,34.80
2023-02-09T15:56:40.142Z,39.25
2023-02-09T15:59:16.940Z,40.55
2023-02-09T16:01:44.837Z,37.70
2023-02-09T16:04:14.250Z,49.05
2023-02-09T16:06:49.954Z,40.78
2023-02-09T16:09:19.943Z,44.63
2023-02-09T16:11:48.335Z,43.50
2023-02-09T16:14:20.496Z,46.58
2023-02-09T16:16:48.698Z,52.70
2023-02-09T16:19:17.354Z,48.53
2023-02-09T16:21:47.543Z,45.10
2023-02-09T16:24:22.404Z,44.08
2023-02-09T16:26:50.297Z,47.13
2023-02-09T16:29:19.700Z,46.85
2023-02-09T16:31:47.820Z,45.80
2023-02-09T16:34:16.119Z,55.13
2023-02-09T16:36:45.065Z,47.10
2023-02-09T16:39:19.060Z,48.13
2023-02-09T16:41:53.742Z,47.22
2023-02-09T16:44:25.152Z,55.88
2023-02-09T16:46:55.207Z,51.75
2023-02-09T16:49:33.956Z,61.00
2023-02-09T16:52:06.107Z,55.60
2023-02-09T16:54:42.404Z,56.60
2023-02-09T16:57:14.365Z,50.05
2023-02-09T16:59:43.668Z,52.92
2023-02-09T17:02:31.745Z,58.00
2023-02-09T17:05:00.993Z,66.18
2023-02-09T17:07:34.259Z,57.92
2023-02-09T17:10:15.232Z,52.65
2023-02-09T17:12:43.192Z,64.53
2023-02-09T17:15:28.523Z,54.95
2023-02-09T17:18:02.121Z,60.22
2023-02-09T17:20:36.323Z,54.30
2023-02-09T17:23:04.691Z,60.08
2023-02-09T17:25:33.168Z,61.50
2023-02-09T17:28:01.152Z,62.72
2023-02-09T17:30:33.727Z,53.72
2023-02-09T17:33:03.563Z,62.55
2023-02-09T17:36:00.918Z,59.42
2023-02-09T17:38:24.321Z,53.83
2023-02-09T17:40:53.082Z,57.28
2023-02-09T17:43:21.717Z,60.47
2023-02-09T17:45:51.252Z,59.20
2023-02-09T17:48:19.659Z,55.25
2023-02-09T17:50:49.249Z,65.22
2023-02-09T17:53:20.189Z,63.25
2023-02-09T17:55:48.863Z,65.03
2023-02-09T17:58:17.691Z,63.65
2023-02-09T18:00:46.530Z,75.88
2023-02-09T18:03:17.776Z,80.32
2023-02-09T18:05:48.182Z,63.78
2023-02-09T18:08:16.113Z,70.05
2023-02-09T18:10:44.052Z,63.63
2023-02-09T18:13:17.566Z,64.95
2023-02-09T18:15:46.102Z,64.63
2023-02-09T18:18:15.497Z,60.88
2023-02-09T18:20:43.467Z,64.93
2023-02-09T18:23:15.827Z,64.70
2023-02-09T18:25:44.205Z,59.75
2023-02-09T18:28:16.594Z,63.38
2023-02-09T18:30:45.579Z,55.53
2023-02-09T18:33:15.895Z,65.55
2023-02-09T18:35:45.665Z,57.08
2023-02-09T18:38:15.768Z,64.28
2023-02-09T18:40:43.810Z,59.13
2023-02-09T18:43:14.544Z,61.55
2023-02-09T18:45:42.499Z,56.17
2023-02-09T18:48:11.631Z,64.32
2023-02-09T18:50:41.213Z,58.13
2023-02-09T18:53:09.461Z,68.90
2023-02-09T18:55:37.418Z,64.40
2023-02-09T18:58:06.851Z,58.72
2023-02-09T19:00:34.937Z,65.63
2023-02-09T19:03:03.201Z,65.90
2023-02-09T19:05:32.769Z,60.78
2023-02-09T19:08:02.216Z,57.65
2023-02-09T19:10:32.951Z,56.13
2023-02-09T19:13:02.378Z,55.42
2023-02-09T19:15:31.412Z,61.60
2023-02-09T19:17:59.666Z,58.00
2023-02-09T19:20:30.478Z,58.88
2023-02-09T19:22:58.382Z,72.65
2023-02-09T19:25:29.513Z,61.13
2023-02-09T19:27:57.426Z,58.58
2023-02-09T19:30:26.488Z,52.95
2023-02-09T19:32:57.480Z,64.40
2023-02-09T19:35:25.684Z,63.70
2023-02-09T19:37:54.831Z,58.72
2023-02-09T19:40:28.463Z,59.30
2023-02-09T19:42:58.119Z,58.83
2023-02-09T19:45:25.954Z,62.72
2023-02-09T19:47:53.766Z,64.53
2023-02-09T19:50:21.607Z,62.42
2023-02-09T19:52:50.291Z,66.43
2023-02-09T19:55:18.166Z,59.60
2023-02-09T19:57:45.977Z,60.95
2023-02-09T20:00:18.086Z,67.95
2023-02-09T20:02:46.711Z,59.58
2023-02-09T20:05:14.727Z,59.55
2023-02-09T20:07:43.009Z,56.45
2023-02-09T20:10:11.382Z,59.65
2023-02-09T20:12:39.313Z,65.15
2023-02-09T20:15:07.419Z,67.63
2023-02-09T20:17:36.697Z,66.93
2023-02-09T20:20:05.146Z,71.55
2023-02-09T20:22:34.626Z,65.78
2023-02-09T20:25:02.470Z,63.22
2023-02-09T20:27:30.336Z,65.18
2023-02-09T20:30:01.384Z,60.05
2023-02-09T20:32:29.305Z,63.33
2023-02-09T20:34:58.462Z,57.08
2023-02-09T20:37:26.324Z,66.25
2023-02-09T20:39:54.193Z,66.57
2023-02-09T20:42:39.450Z,64.13
2023-02-09T20:45:25.405Z,72.65
2023-02-09T20:47:53.281Z,59.00
2023-02-09T20:50:22.564Z,71.50
2023-02-09T20:52:50.399Z,69.40
2023-02-09T20:55:22.357Z,62.55
2023-02-09T20:57:50.465Z,69.80
2023-02-09T21:00:18.914Z,73.55
2023-02-09T21:02:46.818Z,65.30
2023-02-09T21:05:14.760Z,77.53
2023-02-09T21:07:43.980Z,66.22
2023-02-09T21:10:13.086Z,63.28
2023-02-09T21:12:40.921Z,72.40
2023-02-09T21:15:09.257Z,66.28
2023-02-09T21:17:37.125Z,67.47
2023-02-09T21:20:06.195Z,68.72
2023-02-09T21:22:34.053Z,69.82
2023-02-09T21:25:03.255Z,73.45
2023-02-09T21:27:32.714Z,80.95
2023-02-09T21:30:00.641Z,72.00
2023-02-09T21:32:28.959Z,82.13
2023-02-09T21:34:56.802Z,78.10
2023-02-09T21:37:24.647Z,78.85
2023-02-09T21:39:52.457Z,75.00
2023-02-09T21:42:28.523Z,74.47
2023-02-09T21:44:56.595Z,85.45
2023-02-09T21:47:26.794Z,78.30
2023-02-09T21:49:54.885Z,73.40
2023-02-09T21:52:22.748Z,83.43
2023-02-09T21:54:50.853Z,75.50
2023-02-09T21:57:19.163Z,73.68
2023-02-09T21:59:48.312Z,72.75
2023-02-09T22:02:17.788Z,71.88
2023-02-09T22:04:46.637Z,79.50
2023-02-09T22:07:15.609Z,73.47
2023-02-09T22:09:43.516Z,71.47
2023-02-09T22:12:11.355Z,77.35
2023-02-09T22:14:39.204Z,77.40
2023-02-09T22:17:08.417Z,77.72
2023-02-09T22:19:36.515Z,67.95
2023-02-09T22:22:04.721Z,76.50
2023-02-09T22:24:34.640Z,72.50
2023-02-09T22:27:03.191Z,75.60
2023-02-09T22:29:33.165Z,70.10
2023-02-09T22:32:01.007Z,70.55
2023-02-09T22:34:30.230Z,74.10
2023-02-09T22:36:58.147Z,70.65
2023-02-09T22:39:25.988Z,63.17
2023-02-09T22:41:57.972Z,67.72
2023-02-09T22:44:27.897Z,74.07
2023-02-09T22:46:55.750Z,66.80
2023-02-09T22:49:23.697Z,65.85
2023-02-09T22:51:52.845Z,69.13
2023-02-09T22:54:21.753Z,71.75
2023-02-09T22:56:49.655Z,67.22
2023-02-09T22:59:17.534Z,63.70
2023-02-09T23:01:46.192Z,68.78
2023-02-09T23:04:14.474Z,65.07
2023-02-09T23:06:42.382Z,67.47
2023-02-09T23:09:14.264Z,70.22
2023-02-09T23:11:42.442Z,68.22
2023-02-09T23:14:12.536Z,66.28
2023-02-09T23:16:41.902Z,72.45
2023-02-09T23:19:12.786Z,67.10
2023-02-09T23:21:42.810Z,70.78
2023-02-09T23:24:13.486Z,65.68
2023-02-09T23:26:41.497Z,67.82
2023-02-09T23:29:12.796Z,60.42
2023-02-09T23:31:41.361Z,64.00
2023-02-09T23:34:12.776Z,63.03
2023-02-09T23:36:40.625Z,75.43
2023-02-09T23:39:08.489Z,66.00
2023-02-09T23:41:37.665Z,64.40
2023-02-09T23:44:05.805Z,69.07
2023-02-09T23:46:33.734Z,64.28
2023-02-09T23:49:01.784Z,67.18
2023-02-09T23:51:31.584Z,65.03
2023-02-09T23:54:00.972Z,68.35
2023-02-09T23:56:31.667Z,71.60
2023-02-09T23:59:00.905Z,66.35
